sensor_id;sensor_type;location;lat;lon;timestamp;P1;durP1;ratioP1;P2;durP2;ratioP2
56999;SDS011;42891;50.006;21.964;2022-08-19T00:02:44;16.25;;;12.98;;
56999;SDS011;42891;50.006;21.964;2022-08-19T00:06:46;16.58;;;12.88;;
56999;SDS011;42891;50.006;21.964;2022-08-19T00:10:46;14.80;;;12.52;;
56999;SDS011;42891;50.006;21.964;2022-08-19T00:14:47;17.15;;;13.30;;
56999;SDS011;42891;50.006;21.964;2022-08-19T00:18:48;15.90;;;13.25;;
56999;SDS011;42891;50.006;21.964;2022-08-19T00:22:48;18.40;;;13.63;;
56999;SDS011;42891;50.006;21.964;2022-08-19T00:26:49;18.77;;;13.18;;
56999;SDS011;42891;50.006;21.964;2022-08-19T00:30:50;17.08;;;12.93;;
56999;SDS011;42891;50.006;21.964;2022-08-19T00:34:51;18.00;;;13.15;;
56999;SDS011;42891;50.006;21.964;2022-08-19T00:38:52;16.65;;;13.52;;
56999;SDS011;42891;50.006;21.964;2022-08-19T00:42:53;22.50;;;13.75;;
56999;SDS011;42891;50.006;21.964;2022-08-19T00:46:55;15.43;;;13.73;;
56999;SDS011;42891;50.006;21.964;2022-08-19T00:50:58;17.58;;;13.20;;
56999;SDS011;42891;50.006;21.964;2022-08-19T00:55:00;18.55;;;13.80;;
56999;SDS011;42891;50.006;21.964;2022-08-19T00:59:02;16.55;;;13.02;;
56999;SDS011;42891;50.006;21.964;2022-08-19T01:03:10;18.50;;;13.15;;
56999;SDS011;42891;50.006;21.964;2022-08-19T01:07:15;15.63;;;13.60;;
56999;SDS011;42891;50.006;21.964;2022-08-19T01:11:16;15.45;;;12.60;;
56999;SDS011;42891;50.006;21.964;2022-08-19T01:15:19;16.13;;;12.98;;
56999;SDS011;42891;50.006;21.964;2022-08-19T01:19:27;15.35;;;12.73;;
56999;SDS011;42891;50.006;21.964;2022-08-19T01:23:31;18.15;;;13.68;;
56999;SDS011;42891;50.006;21.964;2022-08-19T01:27:45;16.98;;;12.43;;
56999;SDS011;42891;50.006;21.964;2022-08-19T01:31:47;18.27;;;12.23;;
56999;SDS011;42891;50.006;21.964;2022-08-19T01:35:49;16.60;;;12.45;;
56999;SDS011;42891;50.006;21.964;2022-08-19T01:39:51;13.95;;;12.50;;
56999;SDS011;42891;50.006;21.964;2022-08-19T01:43:52;14.40;;;12.60;;
56999;SDS011;42891;50.006;21.964;2022-08-19T01:47:53;14.35;;;12.85;;
56999;SDS011;42891;50.006;21.964;2022-08-19T01:51:54;17.60;;;12.88;;
56999;SDS011;42891;50.006;21.964;2022-08-19T01:55:55;13.95;;;12.35;;
56999;SDS011;42891;50.006;21.964;2022-08-19T01:59:55;16.75;;;13.27;;
56999;SDS011;42891;50.006;21.964;2022-08-19T02:03:56;14.70;;;12.13;;
56999;SDS011;42891;50.006;21.964;2022-08-19T02:07:57;16.02;;;12.85;;
56999;SDS011;42891;50.006;21.964;2022-08-19T02:11:58;16.15;;;12.88;;
56999;SDS011;42891;50.006;21.964;2022-08-19T02:15:59;14.97;;;12.63;;
56999;SDS011;42891;50.006;21.964;2022-08-19T02:19:59;16.88;;;12.23;;
56999;SDS011;42891;50.006;21.964;2022-08-19T02:24:00;18.17;;;13.38;;
56999;SDS011;42891;50.006;21.964;2022-08-19T02:28:00;16.60;;;12.77;;
56999;SDS011;42891;50.006;21.964;2022-08-19T02:32:01;16.15;;;12.60;;
56999;SDS011;42891;50.006;21.964;2022-08-19T02:36:03;15.15;;;12.80;;
56999;SDS011;42891;50.006;21.964;2022-08-19T02:40:05;16.38;;;12.60;;
56999;SDS011;42891;50.006;21.964;2022-08-19T02:44:06;18.80;;;13.98;;
56999;SDS011;42891;50.006;21.964;2022-08-19T02:48:07;16.10;;;13.27;;
56999;SDS011;42891;50.006;21.964;2022-08-19T02:52:09;15.95;;;13.23;;
56999;SDS011;42891;50.006;21.964;2022-08-19T02:56:11;16.95;;;12.63;;
56999;SDS011;42891;50.006;21.964;2022-08-19T03:00:11;15.15;;;13.55;;
56999;SDS011;42891;50.006;21.964;2022-08-19T03:04:13;16.40;;;13.70;;
56999;SDS011;42891;50.006;21.964;2022-08-19T03:08:15;15.80;;;13.43;;
56999;SDS011;42891;50.006;21.964;2022-08-19T03:12:15;17.60;;;13.38;;
56999;SDS011;42891;50.006;21.964;2022-08-19T03:16:16;16.57;;;14.73;;
56999;SDS011;42891;50.006;21.964;2022-08-19T03:20:17;16.13;;;13.63;;
56999;SDS011;42891;50.006;21.964;2022-08-19T03:24:18;16.92;;;13.63;;
56999;SDS011;42891;50.006;21.964;2022-08-19T03:28:20;17.58;;;12.93;;
56999;SDS011;42891;50.006;21.964;2022-08-19T03:32:21;15.95;;;13.55;;
56999;SDS011;42891;50.006;21.964;2022-08-19T03:36:22;16.15;;;13.65;;
56999;SDS011;42891;50.006;21.964;2022-08-19T03:40:24;14.75;;;12.70;;
56999;SDS011;42891;50.006;21.964;2022-08-19T03:44:25;15.82;;;13.65;;
56999;SDS011;42891;50.006;21.964;2022-08-19T03:48:26;16.75;;;13.20;;
56999;SDS011;42891;50.006;21.964;2022-08-19T03:52:26;17.07;;;13.10;;
56999;SDS011;42891;50.006;21.964;2022-08-19T03:56:26;15.90;;;12.75;;
56999;SDS011;42891;50.006;21.964;2022-08-19T04:00:27;19.55;;;13.48;;
56999;SDS011;42891;50.006;21.964;2022-08-19T04:04:28;21.23;;;13.80;;
56999;SDS011;42891;50.006;21.964;2022-08-19T04:08:28;17.63;;;14.48;;
56999;SDS011;42891;50.006;21.964;2022-08-19T04:12:29;25.80;;;15.60;;
56999;SDS011;42891;50.006;21.964;2022-08-19T04:16:29;19.30;;;14.70;;
56999;SDS011;42891;50.006;21.964;2022-08-19T04:20:30;17.58;;;14.45;;
56999;SDS011;42891;50.006;21.964;2022-08-19T04:24:30;18.67;;;14.03;;
56999;SDS011;42891;50.006;21.964;2022-08-19T04:28:31;17.25;;;13.75;;
56999;SDS011;42891;50.006;21.964;2022-08-19T04:32:31;16.83;;;13.48;;
56999;SDS011;42891;50.006;21.964;2022-08-19T04:36:32;16.08;;;13.13;;
56999;SDS011;42891;50.006;21.964;2022-08-19T04:40:39;16.73;;;13.38;;
56999;SDS011;42891;50.006;21.964;2022-08-19T04:45:00;16.88;;;13.20;;
56999;SDS011;42891;50.006;21.964;2022-08-19T04:49:03;16.05;;;12.73;;
56999;SDS011;42891;50.006;21.964;2022-08-19T04:53:05;15.50;;;12.30;;
56999;SDS011;42891;50.006;21.964;2022-08-19T04:57:06;16.37;;;12.67;;
56999;SDS011;42891;50.006;21.964;2022-08-19T05:01:12;14.10;;;12.35;;
56999;SDS011;42891;50.006;21.964;2022-08-19T05:09:14;15.60;;;12.13;;
56999;SDS011;42891;50.006;21.964;2022-08-19T05:13:18;16.08;;;12.35;;
56999;SDS011;42891;50.006;21.964;2022-08-19T05:17:19;14.77;;;13.15;;
56999;SDS011;42891;50.006;21.964;2022-08-19T05:21:19;15.20;;;12.68;;
56999;SDS011;42891;50.006;21.964;2022-08-19T05:25:39;16.17;;;12.77;;
56999;SDS011;42891;50.006;21.964;2022-08-19T05:29:39;14.90;;;12.07;;
56999;SDS011;42891;50.006;21.964;2022-08-19T05:33:40;15.63;;;12.53;;
56999;SDS011;42891;50.006;21.964;2022-08-19T05:37:40;14.55;;;12.40;;
56999;SDS011;42891;50.006;21.964;2022-08-19T05:41:44;17.87;;;12.07;;
56999;SDS011;42891;50.006;21.964;2022-08-19T05:45:46;15.68;;;11.95;;
56999;SDS011;42891;50.006;21.964;2022-08-19T05:49:47;15.27;;;11.57;;
56999;SDS011;42891;50.006;21.964;2022-08-19T05:53:49;18.85;;;11.43;;
56999;SDS011;42891;50.006;21.964;2022-08-19T05:57:50;15.63;;;11.82;;
56999;SDS011;42891;50.006;21.964;2022-08-19T06:01:51;12.97;;;11.57;;
56999;SDS011;42891;50.006;21.964;2022-08-19T06:05:54;16.73;;;12.45;;
56999;SDS011;42891;50.006;21.964;2022-08-19T06:09:55;13.65;;;10.90;;
56999;SDS011;42891;50.006;21.964;2022-08-19T06:13:56;14.25;;;11.63;;
56999;SDS011;42891;50.006;21.964;2022-08-19T06:17:57;17.73;;;11.30;;
56999;SDS011;42891;50.006;21.964;2022-08-19T06:21:58;16.30;;;11.23;;
56999;SDS011;42891;50.006;21.964;2022-08-19T06:25:59;13.40;;;10.15;;
56999;SDS011;42891;50.006;21.964;2022-08-19T06:29:59;14.03;;;11.00;;
56999;SDS011;42891;50.006;21.964;2022-08-19T06:34:01;12.43;;;10.30;;
56999;SDS011;42891;50.006;21.964;2022-08-19T06:38:02;15.13;;;10.35;;
56999;SDS011;42891;50.006;21.964;2022-08-19T06:42:05;15.50;;;10.75;;
56999;SDS011;42891;50.006;21.964;2022-08-19T06:46:12;11.82;;;10.60;;
56999;SDS011;42891;50.006;21.964;2022-08-19T06:50:14;15.57;;;10.30;;
56999;SDS011;42891;50.006;21.964;2022-08-19T06:54:15;16.67;;;10.03;;
56999;SDS011;42891;50.006;21.964;2022-08-19T06:58:17;12.93;;;10.00;;
56999;SDS011;42891;50.006;21.964;2022-08-19T07:02:17;12.07;;;10.00;;
56999;SDS011;42891;50.006;21.964;2022-08-19T07:06:18;12.93;;;9.65;;
56999;SDS011;42891;50.006;21.964;2022-08-19T07:10:20;13.52;;;10.18;;
56999;SDS011;42891;50.006;21.964;2022-08-19T07:14:22;12.80;;;9.45;;
56999;SDS011;42891;50.006;21.964;2022-08-19T07:18:25;10.90;;;9.80;;
56999;SDS011;42891;50.006;21.964;2022-08-19T07:22:25;13.70;;;9.33;;
56999;SDS011;42891;50.006;21.964;2022-08-19T07:26:26;13.70;;;9.97;;
56999;SDS011;42891;50.006;21.964;2022-08-19T07:30:29;13.07;;;9.98;;
56999;SDS011;42891;50.006;21.964;2022-08-19T07:34:30;11.35;;;9.30;;
56999;SDS011;42891;50.006;21.964;2022-08-19T07:38:33;13.23;;;9.18;;
56999;SDS011;42891;50.006;21.964;2022-08-19T07:42:34;12.02;;;9.35;;
56999;SDS011;42891;50.006;21.964;2022-08-19T07:46:36;10.38;;;8.52;;
56999;SDS011;42891;50.006;21.964;2022-08-19T07:50:37;12.77;;;8.82;;
56999;SDS011;42891;50.006;21.964;2022-08-19T07:54:39;13.35;;;9.07;;
56999;SDS011;42891;50.006;21.964;2022-08-19T07:58:41;10.80;;;8.25;;
56999;SDS011;42891;50.006;21.964;2022-08-19T08:02:43;11.80;;;8.73;;
56999;SDS011;42891;50.006;21.964;2022-08-19T08:06:43;12.30;;;8.90;;
56999;SDS011;42891;50.006;21.964;2022-08-19T08:11:03;11.57;;;8.85;;
56999;SDS011;42891;50.006;21.964;2022-08-19T08:15:06;10.80;;;8.77;;
56999;SDS011;42891;50.006;21.964;2022-08-19T08:19:09;11.00;;;8.75;;
56999;SDS011;42891;50.006;21.964;2022-08-19T08:23:09;10.73;;;8.23;;
56999;SDS011;42891;50.006;21.964;2022-08-19T08:27:22;15.20;;;8.52;;
56999;SDS011;42891;50.006;21.964;2022-08-19T08:31:22;13.53;;;8.40;;
56999;SDS011;42891;50.006;21.964;2022-08-19T08:35:23;13.10;;;8.63;;
56999;SDS011;42891;50.006;21.964;2022-08-19T08:39:24;12.60;;;8.68;;
56999;SDS011;42891;50.006;21.964;2022-08-19T08:43:29;10.20;;;8.13;;
56999;SDS011;42891;50.006;21.964;2022-08-19T08:47:37;11.57;;;8.55;;
56999;SDS011;42891;50.006;21.964;2022-08-19T08:51:42;9.57;;;8.05;;
56999;SDS011;42891;50.006;21.964;2022-08-19T08:55:47;11.80;;;7.82;;
56999;SDS011;42891;50.006;21.964;2022-08-19T08:59:47;9.30;;;8.10;;
56999;SDS011;42891;50.006;21.964;2022-08-19T09:03:51;9.75;;;8.75;;
56999;SDS011;42891;50.006;21.964;2022-08-19T09:08:07;12.65;;;8.80;;
56999;SDS011;42891;50.006;21.964;2022-08-19T09:16:21;10.23;;;8.50;;
56999;SDS011;42891;50.006;21.964;2022-08-19T09:20:24;11.70;;;7.88;;
56999;SDS011;42891;50.006;21.964;2022-08-19T09:24:25;11.30;;;8.40;;
56999;SDS011;42891;50.006;21.964;2022-08-19T09:28:25;12.20;;;8.23;;
56999;SDS011;42891;50.006;21.964;2022-08-19T09:32:27;9.82;;;8.07;;
56999;SDS011;42891;50.006;21.964;2022-08-19T09:36:27;10.87;;;8.30;;
56999;SDS011;42891;50.006;21.964;2022-08-19T09:40:35;11.30;;;8.10;;
56999;SDS011;42891;50.006;21.964;2022-08-19T09:44:36;11.20;;;7.88;;
56999;SDS011;42891;50.006;21.964;2022-08-19T09:48:36;8.75;;;7.75;;
56999;SDS011;42891;50.006;21.964;2022-08-19T09:52:37;12.65;;;7.70;;
56999;SDS011;42891;50.006;21.964;2022-08-19T09:56:37;9.38;;;7.60;;
56999;SDS011;42891;50.006;21.964;2022-08-19T10:00:38;8.47;;;6.80;;
56999;SDS011;42891;50.006;21.964;2022-08-19T10:04:38;9.63;;;7.00;;
56999;SDS011;42891;50.006;21.964;2022-08-19T10:08:57;8.27;;;7.05;;
56999;SDS011;42891;50.006;21.964;2022-08-19T10:13:00;8.57;;;7.15;;
56999;SDS011;42891;50.006;21.964;2022-08-19T10:17:00;8.50;;;6.63;;
56999;SDS011;42891;50.006;21.964;2022-08-19T10:21:06;10.02;;;7.22;;
56999;SDS011;42891;50.006;21.964;2022-08-19T10:25:11;8.98;;;6.97;;
56999;SDS011;42891;50.006;21.964;2022-08-19T10:29:13;8.32;;;6.88;;
56999;SDS011;42891;50.006;21.964;2022-08-19T10:33:15;7.25;;;6.40;;
56999;SDS011;42891;50.006;21.964;2022-08-19T10:37:16;8.38;;;6.03;;
56999;SDS011;42891;50.006;21.964;2022-08-19T10:41:18;8.07;;;7.05;;
56999;SDS011;42891;50.006;21.964;2022-08-19T10:45:23;8.38;;;6.13;;
56999;SDS011;42891;50.006;21.964;2022-08-19T10:49:25;8.23;;;6.40;;
56999;SDS011;42891;50.006;21.964;2022-08-19T10:53:26;6.85;;;5.68;;
56999;SDS011;42891;50.006;21.964;2022-08-19T10:57:30;6.30;;;5.27;;
56999;SDS011;42891;50.006;21.964;2022-08-19T11:01:31;9.40;;;5.73;;
56999;SDS011;42891;50.006;21.964;2022-08-19T11:05:33;6.20;;;5.60;;
56999;SDS011;42891;50.006;21.964;2022-08-19T11:09:38;13.02;;;5.65;;
56999;SDS011;42891;50.006;21.964;2022-08-19T11:13:40;5.70;;;5.18;;
56999;SDS011;42891;50.006;21.964;2022-08-19T11:17:42;6.07;;;5.15;;
56999;SDS011;42891;50.006;21.964;2022-08-19T11:21:44;7.60;;;4.65;;
56999;SDS011;42891;50.006;21.964;2022-08-19T11:25:46;7.20;;;5.22;;
56999;SDS011;42891;50.006;21.964;2022-08-19T11:29:46;7.90;;;5.30;;
56999;SDS011;42891;50.006;21.964;2022-08-19T11:33:47;6.43;;;4.88;;
56999;SDS011;42891;50.006;21.964;2022-08-19T11:37:50;6.60;;;5.32;;
56999;SDS011;42891;50.006;21.964;2022-08-19T11:41:51;6.55;;;5.57;;
56999;SDS011;42891;50.006;21.964;2022-08-19T11:45:51;7.45;;;4.70;;
56999;SDS011;42891;50.006;21.964;2022-08-19T11:49:51;6.78;;;5.18;;
56999;SDS011;42891;50.006;21.964;2022-08-19T11:53:53;6.35;;;5.35;;
56999;SDS011;42891;50.006;21.964;2022-08-19T11:57:55;6.40;;;4.40;;
56999;SDS011;42891;50.006;21.964;2022-08-19T12:01:55;7.87;;;4.70;;
56999;SDS011;42891;50.006;21.964;2022-08-19T12:05:56;9.82;;;4.38;;
56999;SDS011;42891;50.006;21.964;2022-08-19T12:09:57;5.38;;;4.75;;
56999;SDS011;42891;50.006;21.964;2022-08-19T12:13:57;6.07;;;4.63;;
56999;SDS011;42891;50.006;21.964;2022-08-19T12:17:57;5.65;;;4.57;;
56999;SDS011;42891;50.006;21.964;2022-08-19T12:21:58;6.37;;;4.70;;
56999;SDS011;42891;50.006;21.964;2022-08-19T12:26:00;5.05;;;4.57;;
56999;SDS011;42891;50.006;21.964;2022-08-19T12:30:01;6.97;;;4.50;;
56999;SDS011;42891;50.006;21.964;2022-08-19T12:34:03;5.53;;;3.95;;
56999;SDS011;42891;50.006;21.964;2022-08-19T12:38:04;6.38;;;4.10;;
56999;SDS011;42891;50.006;21.964;2022-08-19T12:42:05;5.93;;;4.10;;
56999;SDS011;42891;50.006;21.964;2022-08-19T12:46:05;5.50;;;4.30;;
56999;SDS011;42891;50.006;21.964;2022-08-19T12:50:06;6.60;;;4.80;;
56999;SDS011;42891;50.006;21.964;2022-08-19T12:54:08;5.57;;;4.40;;
56999;SDS011;42891;50.006;21.964;2022-08-19T12:58:09;8.40;;;4.80;;
56999;SDS011;42891;50.006;21.964;2022-08-19T13:02:10;11.93;;;5.03;;
56999;SDS011;42891;50.006;21.964;2022-08-19T13:06:10;6.93;;;4.93;;
56999;SDS011;42891;50.006;21.964;2022-08-19T13:10:12;5.40;;;4.60;;
56999;SDS011;42891;50.006;21.964;2022-08-19T13:14:17;6.38;;;4.90;;
56999;SDS011;42891;50.006;21.964;2022-08-19T13:18:18;6.13;;;4.57;;
56999;SDS011;42891;50.006;21.964;2022-08-19T13:22:19;13.10;;;4.70;;
56999;SDS011;42891;50.006;21.964;2022-08-19T13:26:19;8.80;;;4.73;;
56999;SDS011;42891;50.006;21.964;2022-08-19T13:30:19;10.30;;;5.13;;
56999;SDS011;42891;50.006;21.964;2022-08-19T13:34:39;8.10;;;4.80;;
56999;SDS011;42891;50.006;21.964;2022-08-19T13:38:39;12.17;;;4.80;;
56999;SDS011;42891;50.006;21.964;2022-08-19T13:42:40;10.80;;;4.47;;
56999;SDS011;42891;50.006;21.964;2022-08-19T13:46:41;6.85;;;5.00;;
56999;SDS011;42891;50.006;21.964;2022-08-19T13:50:45;5.80;;;4.50;;
56999;SDS011;42891;50.006;21.964;2022-08-19T13:54:47;6.95;;;4.60;;
56999;SDS011;42891;50.006;21.964;2022-08-19T13:58:48;10.00;;;4.65;;
56999;SDS011;42891;50.006;21.964;2022-08-19T14:02:50;8.83;;;5.10;;
56999;SDS011;42891;50.006;21.964;2022-08-19T14:06:51;7.53;;;4.65;;
56999;SDS011;42891;50.006;21.964;2022-08-19T14:10:51;8.27;;;4.30;;
56999;SDS011;42891;50.006;21.964;2022-08-19T14:14:52;6.80;;;4.70;;
56999;SDS011;42891;50.006;21.964;2022-08-19T14:18:52;6.70;;;4.80;;
56999;SDS011;42891;50.006;21.964;2022-08-19T14:22:53;9.93;;;5.07;;
56999;SDS011;42891;50.006;21.964;2022-08-19T14:26:54;11.30;;;5.10;;
56999;SDS011;42891;50.006;21.964;2022-08-19T14:30:55;8.33;;;4.87;;
56999;SDS011;42891;50.006;21.964;2022-08-19T14:34:55;5.20;;;4.70;;
56999;SDS011;42891;50.006;21.964;2022-08-19T14:38:55;6.13;;;4.60;;
56999;SDS011;42891;50.006;21.964;2022-08-19T14:42:58;9.40;;;4.75;;
56999;SDS011;42891;50.006;21.964;2022-08-19T14:47:03;11.05;;;4.65;;
56999;SDS011;42891;50.006;21.964;2022-08-19T14:51:05;6.32;;;4.60;;
56999;SDS011;42891;50.006;21.964;2022-08-19T14:55:06;6.22;;;4.47;;
56999;SDS011;42891;50.006;21.964;2022-08-19T14:59:06;5.68;;;4.30;;
56999;SDS011;42891;50.006;21.964;2022-08-19T15:03:07;8.10;;;4.20;;
56999;SDS011;42891;50.006;21.964;2022-08-19T15:07:07;7.67;;;4.43;;
56999;SDS011;42891;50.006;21.964;2022-08-19T15:11:08;6.07;;;4.50;;
56999;SDS011;42891;50.006;21.964;2022-08-19T15:15:11;7.55;;;4.63;;
56999;SDS011;42891;50.006;21.964;2022-08-19T15:19:13;7.35;;;5.18;;
56999;SDS011;42891;50.006;21.964;2022-08-19T15:23:14;8.23;;;4.72;;
56999;SDS011;42891;50.006;21.964;2022-08-19T15:27:15;8.05;;;4.63;;
56999;SDS011;42891;50.006;21.964;2022-08-19T15:31:17;13.32;;;4.63;;
56999;SDS011;42891;50.006;21.964;2022-08-19T15:35:19;8.27;;;4.65;;
56999;SDS011;42891;50.006;21.964;2022-08-19T15:39:20;8.82;;;4.70;;
56999;SDS011;42891;50.006;21.964;2022-08-19T15:43:20;9.33;;;5.03;;
56999;SDS011;42891;50.006;21.964;2022-08-19T15:47:21;7.38;;;4.63;;
56999;SDS011;42891;50.006;21.964;2022-08-19T15:51:21;5.80;;;4.40;;
56999;SDS011;42891;50.006;21.964;2022-08-19T15:55:24;12.45;;;4.72;;
56999;SDS011;42891;50.006;21.964;2022-08-19T15:59:29;7.88;;;4.70;;
56999;SDS011;42891;50.006;21.964;2022-08-19T16:03:48;8.00;;;4.63;;
56999;SDS011;42891;50.006;21.964;2022-08-19T16:08:07;9.50;;;5.07;;
56999;SDS011;42891;50.006;21.964;2022-08-19T16:12:08;11.70;;;4.90;;
56999;SDS011;42891;50.006;21.964;2022-08-19T16:16:09;9.43;;;4.90;;
56999;SDS011;42891;50.006;21.964;2022-08-19T16:20:10;7.55;;;4.70;;
56999;SDS011;42891;50.006;21.964;2022-08-19T16:24:11;10.40;;;4.60;;
56999;SDS011;42891;50.006;21.964;2022-08-19T16:28:13;14.07;;;5.53;;
56999;SDS011;42891;50.006;21.964;2022-08-19T16:32:14;10.18;;;5.05;;
56999;SDS011;42891;50.006;21.964;2022-08-19T16:36:15;9.90;;;4.90;;
56999;SDS011;42891;50.006;21.964;2022-08-19T16:40:16;10.82;;;5.68;;
56999;SDS011;42891;50.006;21.964;2022-08-19T16:44:17;14.23;;;6.00;;
56999;SDS011;42891;50.006;21.964;2022-08-19T16:48:20;13.10;;;5.68;;
56999;SDS011;42891;50.006;21.964;2022-08-19T16:52:21;12.27;;;5.05;;
56999;SDS011;42891;50.006;21.964;2022-08-19T16:56:26;8.63;;;5.50;;
56999;SDS011;42891;50.006;21.964;2022-08-19T17:00:27;10.85;;;6.03;;
56999;SDS011;42891;50.006;21.964;2022-08-19T17:04:28;17.73;;;6.77;;
56999;SDS011;42891;50.006;21.964;2022-08-19T17:08:29;18.88;;;7.57;;
56999;SDS011;42891;50.006;21.964;2022-08-19T17:12:31;20.58;;;8.77;;
56999;SDS011;42891;50.006;21.964;2022-08-19T17:16:32;16.52;;;7.43;;
56999;SDS011;42891;50.006;21.964;2022-08-19T17:20:34;14.82;;;6.80;;
56999;SDS011;42891;50.006;21.964;2022-08-19T17:24:35;17.30;;;7.40;;
56999;SDS011;42891;50.006;21.964;2022-08-19T17:28:36;17.80;;;6.18;;
56999;SDS011;42891;50.006;21.964;2022-08-19T17:32:37;16.90;;;7.22;;
56999;SDS011;42891;50.006;21.964;2022-08-19T17:36:37;15.47;;;8.57;;
56999;SDS011;42891;50.006;21.964;2022-08-19T17:40:38;17.80;;;9.20;;
56999;SDS011;42891;50.006;21.964;2022-08-19T17:44:41;15.32;;;8.88;;
56999;SDS011;42891;50.006;21.964;2022-08-19T17:48:42;13.73;;;8.75;;
56999;SDS011;42891;50.006;21.964;2022-08-19T17:52:42;21.67;;;9.65;;
56999;SDS011;42891;50.006;21.964;2022-08-19T17:56:43;18.90;;;8.18;;
56999;SDS011;42891;50.006;21.964;2022-08-19T18:00:45;11.55;;;7.15;;
56999;SDS011;42891;50.006;21.964;2022-08-19T18:04:45;15.00;;;7.13;;
56999;SDS011;42891;50.006;21.964;2022-08-19T18:08:45;14.83;;;7.47;;
56999;SDS011;42891;50.006;21.964;2022-08-19T18:12:48;17.25;;;7.30;;
56999;SDS011;42891;50.006;21.964;2022-08-19T18:16:49;31.45;;;14.98;;
56999;SDS011;42891;50.006;21.964;2022-08-19T18:20:50;29.15;;;13.88;;
56999;SDS011;42891;50.006;21.964;2022-08-19T18:24:51;30.27;;;13.90;;
56999;SDS011;42891;50.006;21.964;2022-08-19T18:28:51;63.15;;;33.78;;
56999;SDS011;42891;50.006;21.964;2022-08-19T18:32:53;29.85;;;15.57;;
56999;SDS011;42891;50.006;21.964;2022-08-19T18:36:53;32.63;;;17.08;;
56999;SDS011;42891;50.006;21.964;2022-08-19T18:40:53;31.80;;;15.10;;
56999;SDS011;42891;50.006;21.964;2022-08-19T18:45:12;31.95;;;15.30;;
56999;SDS011;42891;50.006;21.964;2022-08-19T18:49:32;26.88;;;12.70;;
56999;SDS011;42891;50.006;21.964;2022-08-19T18:53:34;23.40;;;12.23;;
56999;SDS011;42891;50.006;21.964;2022-08-19T18:57:37;24.95;;;13.60;;
56999;SDS011;42891;50.006;21.964;2022-08-19T19:01:37;26.37;;;13.97;;
56999;SDS011;42891;50.006;21.964;2022-08-19T19:05:39;20.70;;;10.50;;
56999;SDS011;42891;50.006;21.964;2022-08-19T19:09:39;18.67;;;7.32;;
56999;SDS011;42891;50.006;21.964;2022-08-19T19:13:40;10.68;;;5.28;;
56999;SDS011;42891;50.006;21.964;2022-08-19T19:17:45;10.50;;;5.28;;
56999;SDS011;42891;50.006;21.964;2022-08-19T19:21:46;9.02;;;5.07;;
56999;SDS011;42891;50.006;21.964;2022-08-19T19:25:48;16.23;;;6.70;;
56999;SDS011;42891;50.006;21.964;2022-08-19T19:29:51;15.40;;;7.45;;
56999;SDS011;42891;50.006;21.964;2022-08-19T19:33:54;13.80;;;7.65;;
56999;SDS011;42891;50.006;21.964;2022-08-19T19:37:55;14.75;;;7.15;;
56999;SDS011;42891;50.006;21.964;2022-08-19T19:41:56;11.05;;;5.72;;
56999;SDS011;42891;50.006;21.964;2022-08-19T19:45:56;8.13;;;5.03;;
56999;SDS011;42891;50.006;21.964;2022-08-19T19:49:58;11.80;;;6.10;;
56999;SDS011;42891;50.006;21.964;2022-08-19T19:53:58;10.97;;;5.80;;
56999;SDS011;42891;50.006;21.964;2022-08-19T19:57:59;8.13;;;5.40;;
56999;SDS011;42891;50.006;21.964;2022-08-19T20:01:59;11.02;;;5.75;;
56999;SDS011;42891;50.006;21.964;2022-08-19T20:06:00;10.18;;;5.40;;
56999;SDS011;42891;50.006;21.964;2022-08-19T20:10:00;10.60;;;5.68;;
56999;SDS011;42891;50.006;21.964;2022-08-19T20:14:03;14.75;;;6.18;;
56999;SDS011;42891;50.006;21.964;2022-08-19T20:18:04;10.57;;;5.75;;
56999;SDS011;42891;50.006;21.964;2022-08-19T20:22:05;13.60;;;6.30;;
56999;SDS011;42891;50.006;21.964;2022-08-19T20:26:05;17.13;;;6.25;;
56999;SDS011;42891;50.006;21.964;2022-08-19T20:30:07;14.30;;;6.68;;
56999;SDS011;42891;50.006;21.964;2022-08-19T20:34:09;14.07;;;6.68;;
56999;SDS011;42891;50.006;21.964;2022-08-19T20:38:09;9.98;;;7.13;;
56999;SDS011;42891;50.006;21.964;2022-08-19T20:42:10;11.35;;;7.18;;
56999;SDS011;42891;50.006;21.964;2022-08-19T20:46:10;13.00;;;6.95;;
56999;SDS011;42891;50.006;21.964;2022-08-19T20:50:11;12.93;;;6.40;;
56999;SDS011;42891;50.006;21.964;2022-08-19T20:54:11;9.93;;;5.78;;
56999;SDS011;42891;50.006;21.964;2022-08-19T20:58:12;11.77;;;7.00;;
56999;SDS011;42891;50.006;21.964;2022-08-19T21:02:12;9.55;;;6.97;;
56999;SDS011;42891;50.006;21.964;2022-08-19T21:06:13;9.13;;;6.50;;
56999;SDS011;42891;50.006;21.964;2022-08-19T21:10:14;15.50;;;6.82;;
56999;SDS011;42891;50.006;21.964;2022-08-19T21:14:14;9.17;;;6.37;;
56999;SDS011;42891;50.006;21.964;2022-08-19T21:18:15;14.27;;;7.20;;
56999;SDS011;42891;50.006;21.964;2022-08-19T21:22:18;10.00;;;6.80;;
56999;SDS011;42891;50.006;21.964;2022-08-19T21:26:18;10.10;;;6.70;;
56999;SDS011;42891;50.006;21.964;2022-08-19T21:30:19;8.77;;;6.03;;
56999;SDS011;42891;50.006;21.964;2022-08-19T21:34:19;8.88;;;5.95;;
56999;SDS011;42891;50.006;21.964;2022-08-19T21:38:20;8.07;;;5.90;;
56999;SDS011;42891;50.006;21.964;2022-08-19T21:42:21;12.30;;;5.80;;
56999;SDS011;42891;50.006;21.964;2022-08-19T21:46:22;9.30;;;5.85;;
56999;SDS011;42891;50.006;21.964;2022-08-19T21:50:23;9.50;;;6.38;;
56999;SDS011;42891;50.006;21.964;2022-08-19T21:54:24;12.63;;;6.93;;
56999;SDS011;42891;50.006;21.964;2022-08-19T21:58:24;12.50;;;6.30;;
56999;SDS011;42891;50.006;21.964;2022-08-19T22:02:25;11.70;;;6.22;;
56999;SDS011;42891;50.006;21.964;2022-08-19T22:06:27;10.50;;;6.22;;
56999;SDS011;42891;50.006;21.964;2022-08-19T22:10:28;9.00;;;5.57;;
56999;SDS011;42891;50.006;21.964;2022-08-19T22:14:30;8.60;;;5.25;;
56999;SDS011;42891;50.006;21.964;2022-08-19T22:18:32;10.05;;;5.60;;
56999;SDS011;42891;50.006;21.964;2022-08-19T22:22:34;11.50;;;5.65;;
56999;SDS011;42891;50.006;21.964;2022-08-19T22:26:34;9.60;;;5.32;;
56999;SDS011;42891;50.006;21.964;2022-08-19T22:30:35;7.90;;;5.67;;
56999;SDS011;42891;50.006;21.964;2022-08-19T22:34:37;10.93;;;5.35;;
56999;SDS011;42891;50.006;21.964;2022-08-19T22:38:37;7.40;;;5.23;;
56999;SDS011;42891;50.006;21.964;2022-08-19T22:42:38;9.45;;;5.03;;
56999;SDS011;42891;50.006;21.964;2022-08-19T22:46:38;7.95;;;4.93;;
56999;SDS011;42891;50.006;21.964;2022-08-19T22:50:39;12.13;;;6.28;;
56999;SDS011;42891;50.006;21.964;2022-08-19T22:54:43;8.82;;;5.60;;
56999;SDS011;42891;50.006;21.964;2022-08-19T22:58:48;8.23;;;5.55;;
56999;SDS011;42891;50.006;21.964;2022-08-19T23:02:49;9.40;;;5.70;;
56999;SDS011;42891;50.006;21.964;2022-08-19T23:06:50;7.50;;;5.95;;
56999;SDS011;42891;50.006;21.964;2022-08-19T23:10:51;10.23;;;6.32;;
56999;SDS011;42891;50.006;21.964;2022-08-19T23:14:51;9.63;;;5.83;;
56999;SDS011;42891;50.006;21.964;2022-08-19T23:18:52;11.73;;;6.70;;
56999;SDS011;42891;50.006;21.964;2022-08-19T23:22:52;11.03;;;6.30;;
56999;SDS011;42891;50.006;21.964;2022-08-19T23:26:53;10.52;;;6.35;;
56999;SDS011;42891;50.006;21.964;2022-08-19T23:31:12;10.05;;;6.80;;
56999;SDS011;42891;50.006;21.964;2022-08-19T23:35:15;12.70;;;6.70;;
56999;SDS011;42891;50.006;21.964;2022-08-19T23:39:15;11.57;;;6.67;;
56999;SDS011;42891;50.006;21.964;2022-08-19T23:43:16;14.15;;;7.07;;